Richton Park, IL (60471)

2:10 PM CDT en Marzo 26, 2015 (GMT -0500)
Northern Crete IL | Change Station
CLOSE
Current Station
Estación meteorológica personal
Location: Crete, IL
Altura: 730 ft
Estaciones meteorológicas cercanas

Alt 730 ft 41.47 °N, 87.62 °W | Updated 6 seconds ago

Muy nublado
Muy nublado
46.9 ° F
Sensación térmica 45 ° F
N
5.1
Viento Variable Viento desde ONO
Gusts 7.1 mph

Hoy
Alta -- | Baja -- ° F
--% Posibilidad de precipitaciones
Ayer
Alta -- | Baja -- ° F
Precip. -- pul
6:44 AM 7:09 PM
Creciente, 45% visible
Presión 29.94 pul
Visibilidad 10.0 Millas
Nubes Muy nublado 4400 ft
Vientos helados 45 ° F
Punto de rocío 27 ° F
Humedad 45%
Precipitaciones -999.00 pul
Espesor de la nieve No disponible.
UV 4 de una escala de 12
Polen 5.50 de una escala de 12
Calidad del aire No disponible.
Flu Activity No disponible.
METAR KIGQ 261855Z AUTO 32006KT 10SM BKN044 06/M06 A2994 RMK AO2 T00611057

More Conditions Fewer Conditions

Presión 29.94 pul
Visibilidad 10.0 Millas
Nubes Muy nublado 4400 ft
Vientos helados 45 ° F
Punto de rocío 27 ° F
Humedad 45%
Precipitaciones -999.00 pul
Espesor de la nieve No disponible.
UV 4 de una escala de 12
Polen 5.50 de una escala de 12
Calidad del aire No disponible.
Flu Activity No disponible.
METAR KIGQ 261855Z AUTO 32006KT 10SM BKN044 06/M06 A2994 RMK AO2 T00611057

More Conditions Fewer Conditions

10-Day Weather Forecast

Almanac

Astronomía

Mar. 26, 2015 Salida Puesta
Hora real
Crepúsculo civil
Crepúsculo náutico
Crepúsculo astronómico
Luna
Horas de luz
Horas de luz
Tomorrow will be .
, % of the Moon is Illuminated

Extremos de hoy

Máximos del estado Bajos del estado

Community

WunderPhotos

Upload Photos

1,808,606 ¡fotos cargadas!

WunderBlogs® & News

Nearby

Calidad del aire

  Calidad del aire Índice AQ Contaminante
Not available.

Grosos de nieve

Estación Profundido Altura

Actividad de terremotos

Ciudad Distance Mag. Tiempo y dato
Magnitud mínima muestra es 2,5.

Temperaturas de aguas costeras

Lugar Temperatura

Stations

Estaciones meteorológicas cercanas

Ubicación de la estación Temp. Vientos helados Punto de rocío Humedad Viento Precip. Alt Actualizado Tipo